sensor_id;sensor_type;location;lat;lon;timestamp;temperature;humidity
1135;DHT22;556;53.550;10.048;2022-09-27T00:00:47;15.00;54.70
1135;DHT22;556;53.550;10.048;2022-09-27T00:03:14;15.00;54.80
1135;DHT22;556;53.550;10.048;2022-09-27T00:05:42;14.90;54.90
1135;DHT22;556;53.550;10.048;2022-09-27T00:08:09;14.90;55.00
1135;DHT22;556;53.550;10.048;2022-09-27T00:10:36;14.90;55.00
1135;DHT22;556;53.550;10.048;2022-09-27T00:18:02;14.90;55.00
1135;DHT22;556;53.550;10.048;2022-09-27T00:20:29;14.90;55.00
1135;DHT22;556;53.550;10.048;2022-09-27T00:22:56;14.90;55.00
1135;DHT22;556;53.550;10.048;2022-09-27T00:25:24;15.00;55.10
1135;DHT22;556;53.550;10.048;2022-09-27T00:30:19;14.90;55.00
1135;DHT22;556;53.550;10.048;2022-09-27T00:32:48;15.00;55.10
1135;DHT22;556;53.550;10.048;2022-09-27T00:35:17;15.00;55.10
1135;DHT22;556;53.550;10.048;2022-09-27T00:37:47;15.00;55.00
1135;DHT22;556;53.550;10.048;2022-09-27T00:42:42;15.10;54.90
1135;DHT22;556;53.550;10.048;2022-09-27T00:45:13;15.10;55.30
1135;DHT22;556;53.550;10.048;2022-09-27T00:47:50;15.20;55.00
1135;DHT22;556;53.550;10.048;2022-09-27T00:50:28;15.20;55.00
1135;DHT22;556;53.550;10.048;2022-09-27T00:53:03;15.20;55.00
1135;DHT22;556;53.550;10.048;2022-09-27T00:55:41;15.10;55.00
1135;DHT22;556;53.550;10.048;2022-09-27T00:58:12;15.10;55.00
1135;DHT22;556;53.550;10.048;2022-09-27T01:00:44;15.00;55.00
1135;DHT22;556;53.550;10.048;2022-09-27T01:03:18;15.10;55.20
1135;DHT22;556;53.550;10.048;2022-09-27T01:05:48;15.00;55.20
1135;DHT22;556;53.550;10.048;2022-09-27T01:08:16;15.00;55.70
1135;DHT22;556;53.550;10.048;2022-09-27T01:10:51;14.90;55.30
1135;DHT22;556;53.550;10.048;2022-09-27T01:13:30;15.00;55.40
1135;DHT22;556;53.550;10.048;2022-09-27T01:16:04;15.00;55.40
1135;DHT22;556;53.550;10.048;2022-09-27T01:18:43;14.90;55.30
1135;DHT22;556;53.550;10.048;2022-09-27T01:21:37;15.00;55.40
1135;DHT22;556;53.550;10.048;2022-09-27T01:24:28;15.00;55.40
1135;DHT22;556;53.550;10.048;2022-09-27T01:27:32;15.00;55.30
1135;DHT22;556;53.550;10.048;2022-09-27T01:30:24;15.00;55.30
1135;DHT22;556;53.550;10.048;2022-09-27T01:33:13;15.00;55.30
1135;DHT22;556;53.550;10.048;2022-09-27T01:35:58;15.00;55.20
1135;DHT22;556;53.550;10.048;2022-09-27T01:38:40;15.10;55.20
1135;DHT22;556;53.550;10.048;2022-09-27T01:41:16;15.10;55.20
1135;DHT22;556;53.550;10.048;2022-09-27T01:44:23;15.10;55.20
1135;DHT22;556;53.550;10.048;2022-09-27T01:47:04;15.10;55.20
1135;DHT22;556;53.550;10.048;2022-09-27T01:49:48;15.10;55.20
1135;DHT22;556;53.550;10.048;2022-09-27T01:52:21;15.10;55.30
1135;DHT22;556;53.550;10.048;2022-09-27T01:54:52;15.10;55.30
1135;DHT22;556;53.550;10.048;2022-09-27T01:57:48;15.10;55.30
1135;DHT22;556;53.550;10.048;2022-09-27T02:00:22;15.10;55.40
1135;DHT22;556;53.550;10.048;2022-09-27T02:02:55;15.10;55.30
1135;DHT22;556;53.550;10.048;2022-09-27T02:05:37;15.10;55.40
1135;DHT22;556;53.550;10.048;2022-09-27T02:11:22;15.10;55.30
1135;DHT22;556;53.550;10.048;2022-09-27T02:14:02;15.10;55.50
1135;DHT22;556;53.550;10.048;2022-09-27T02:16:55;15.10;55.40
1135;DHT22;556;53.550;10.048;2022-09-27T02:19:36;15.10;55.50
1135;DHT22;556;53.550;10.048;2022-09-27T02:22:12;15.10;55.50
1135;DHT22;556;53.550;10.048;2022-09-27T02:24:48;15.10;55.50
1135;DHT22;556;53.550;10.048;2022-09-27T02:27:20;15.10;55.50
1135;DHT22;556;53.550;10.048;2022-09-27T02:29:54;15.20;55.50
1135;DHT22;556;53.550;10.048;2022-09-27T02:32:24;15.20;55.50
1135;DHT22;556;53.550;10.048;2022-09-27T02:34:55;15.20;55.40
1135;DHT22;556;53.550;10.048;2022-09-27T02:37:23;15.20;55.50
1135;DHT22;556;53.550;10.048;2022-09-27T02:39:51;15.20;55.50
1135;DHT22;556;53.550;10.048;2022-09-27T02:42:18;15.20;55.50
1135;DHT22;556;53.550;10.048;2022-09-27T02:44:45;15.20;55.50
1135;DHT22;556;53.550;10.048;2022-09-27T02:50:45;15.20;55.50
1135;DHT22;556;53.550;10.048;2022-09-27T02:53:34;15.20;55.50
1135;DHT22;556;53.550;10.048;2022-09-27T02:56:25;15.20;55.50
1135;DHT22;556;53.550;10.048;2022-09-27T02:59:19;15.20;55.50
1135;DHT22;556;53.550;10.048;2022-09-27T03:02:03;15.30;55.50
1135;DHT22;556;53.550;10.048;2022-09-27T03:04:48;15.20;55.40
1135;DHT22;556;53.550;10.048;2022-09-27T03:07:19;15.20;55.50
1135;DHT22;556;53.550;10.048;2022-09-27T03:09:49;15.20;55.50
1135;DHT22;556;53.550;10.048;2022-09-27T03:12:18;15.20;55.50
1135;DHT22;556;53.550;10.048;2022-09-27T03:14:52;15.20;55.60
1135;DHT22;556;53.550;10.048;2022-09-27T03:17:58;15.20;55.50
1135;DHT22;556;53.550;10.048;2022-09-27T03:20:40;15.20;55.60
1135;DHT22;556;53.550;10.048;2022-09-27T03:25:42;15.20;55.70
1135;DHT22;556;53.550;10.048;2022-09-27T03:28:11;15.20;55.60
1135;DHT22;556;53.550;10.048;2022-09-27T03:30:44;15.20;55.70
1135;DHT22;556;53.550;10.048;2022-09-27T03:33:16;15.20;55.70
1135;DHT22;556;53.550;10.048;2022-09-27T03:35:50;15.20;55.70
1135;DHT22;556;53.550;10.048;2022-09-27T03:38:19;15.20;55.70
1135;DHT22;556;53.550;10.048;2022-09-27T03:40:47;15.30;55.70
1135;DHT22;556;53.550;10.048;2022-09-27T03:45:44;15.30;55.70
1135;DHT22;556;53.550;10.048;2022-09-27T03:48:12;15.30;55.50
1135;DHT22;556;53.550;10.048;2022-09-27T03:50:40;15.30;55.60
1135;DHT22;556;53.550;10.048;2022-09-27T03:53:07;15.30;55.60
1135;DHT22;556;53.550;10.048;2022-09-27T03:55:36;15.30;55.70
1135;DHT22;556;53.550;10.048;2022-09-27T03:58:03;15.30;55.70
1135;DHT22;556;53.550;10.048;2022-09-27T04:03:01;15.20;55.80
1135;DHT22;556;53.550;10.048;2022-09-27T04:06:01;15.20;55.80
1135;DHT22;556;53.550;10.048;2022-09-27T04:08:36;15.20;55.90
1135;DHT22;556;53.550;10.048;2022-09-27T04:11:07;15.10;55.80
1135;DHT22;556;53.550;10.048;2022-09-27T04:13:34;15.10;55.80
1135;DHT22;556;53.550;10.048;2022-09-27T04:16:02;15.10;55.90
1135;DHT22;556;53.550;10.048;2022-09-27T04:18:46;15.10;55.90
1135;DHT22;556;53.550;10.048;2022-09-27T04:21:40;15.10;55.90
1135;DHT22;556;53.550;10.048;2022-09-27T04:24:09;15.10;55.90
1135;DHT22;556;53.550;10.048;2022-09-27T04:26:40;15.10;55.90
1135;DHT22;556;53.550;10.048;2022-09-27T04:29:13;15.10;55.90
1135;DHT22;556;53.550;10.048;2022-09-27T04:31:47;15.20;55.90
1135;DHT22;556;53.550;10.048;2022-09-27T04:34:18;15.20;55.70
1135;DHT22;556;53.550;10.048;2022-09-27T04:37:05;15.10;55.70
1135;DHT22;556;53.550;10.048;2022-09-27T04:39:38;15.10;55.90
1135;DHT22;556;53.550;10.048;2022-09-27T04:42:09;15.10;55.90
1135;DHT22;556;53.550;10.048;2022-09-27T04:44:36;15.00;55.90
1135;DHT22;556;53.550;10.048;2022-09-27T04:47:03;15.10;56.00
1135;DHT22;556;53.550;10.048;2022-09-27T04:49:30;15.00;56.00
1135;DHT22;556;53.550;10.048;2022-09-27T04:59:34;15.00;56.10
1135;DHT22;556;53.550;10.048;2022-09-27T05:02:01;15.10;56.10
1135;DHT22;556;53.550;10.048;2022-09-27T05:04:45;15.10;56.30
1135;DHT22;556;53.550;10.048;2022-09-27T05:07:13;15.20;56.00
1135;DHT22;556;53.550;10.048;2022-09-27T05:09:44;15.10;55.90
1135;DHT22;556;53.550;10.048;2022-09-27T05:12:11;15.20;56.00
1135;DHT22;556;53.550;10.048;2022-09-27T05:14:39;15.20;55.90
1135;DHT22;556;53.550;10.048;2022-09-27T05:20:13;15.30;55.90
1135;DHT22;556;53.550;10.048;2022-09-27T05:25:19;15.30;56.00
1135;DHT22;556;53.550;10.048;2022-09-27T05:27:46;15.30;56.00
1135;DHT22;556;53.550;10.048;2022-09-27T05:30:15;15.30;56.00
1135;DHT22;556;53.550;10.048;2022-09-27T05:32:49;15.30;55.90
1135;DHT22;556;53.550;10.048;2022-09-27T05:35:36;15.20;56.10
1135;DHT22;556;53.550;10.048;2022-09-27T05:38:07;15.00;56.10
1135;DHT22;556;53.550;10.048;2022-09-27T05:40:35;14.90;56.20
1135;DHT22;556;53.550;10.048;2022-09-27T05:43:02;14.80;56.30
1135;DHT22;556;53.550;10.048;2022-09-27T05:45:31;14.80;56.80
1135;DHT22;556;53.550;10.048;2022-09-27T05:48:02;14.70;56.40
1135;DHT22;556;53.550;10.048;2022-09-27T05:50:31;14.60;56.50
1135;DHT22;556;53.550;10.048;2022-09-27T05:53:00;14.50;56.50
1135;DHT22;556;53.550;10.048;2022-09-27T05:57:57;14.50;56.60
1135;DHT22;556;53.550;10.048;2022-09-27T06:00:31;14.50;56.60
1135;DHT22;556;53.550;10.048;2022-09-27T06:03:01;14.50;57.00
1135;DHT22;556;53.550;10.048;2022-09-27T06:05:46;14.40;56.60
1135;DHT22;556;53.550;10.048;2022-09-27T06:08:33;14.40;56.70
1135;DHT22;556;53.550;10.048;2022-09-27T06:11:02;14.50;56.70
1135;DHT22;556;53.550;10.048;2022-09-27T06:13:31;14.50;56.70
1135;DHT22;556;53.550;10.048;2022-09-27T06:16:01;14.50;56.60
1135;DHT22;556;53.550;10.048;2022-09-27T06:18:28;14.50;56.70
1135;DHT22;556;53.550;10.048;2022-09-27T06:20:57;14.50;56.70
1135;DHT22;556;53.550;10.048;2022-09-27T06:25:54;14.50;56.70
1135;DHT22;556;53.550;10.048;2022-09-27T06:28:29;14.50;56.80
1135;DHT22;556;53.550;10.048;2022-09-27T06:30:57;14.40;56.70
1135;DHT22;556;53.550;10.048;2022-09-27T06:33:48;14.40;56.60
1135;DHT22;556;53.550;10.048;2022-09-27T06:36:15;14.40;56.80
1135;DHT22;556;53.550;10.048;2022-09-27T06:38:43;14.30;56.80
1135;DHT22;556;53.550;10.048;2022-09-27T06:41:17;14.30;56.90
1135;DHT22;556;53.550;10.048;2022-09-27T06:46:49;14.30;56.90
1135;DHT22;556;53.550;10.048;2022-09-27T06:49:35;14.30;56.90
1135;DHT22;556;53.550;10.048;2022-09-27T06:52:03;14.30;57.00
1135;DHT22;556;53.550;10.048;2022-09-27T06:54:30;14.20;56.90
1135;DHT22;556;53.550;10.048;2022-09-27T06:56:58;14.20;56.90
1135;DHT22;556;53.550;10.048;2022-09-27T07:05:11;14.20;56.80
1135;DHT22;556;53.550;10.048;2022-09-27T07:08:06;14.20;57.00
1135;DHT22;556;53.550;10.048;2022-09-27T07:10:34;14.20;56.90
1135;DHT22;556;53.550;10.048;2022-09-27T07:13:02;14.20;57.10
1135;DHT22;556;53.550;10.048;2022-09-27T07:18:00;14.20;57.10
1135;DHT22;556;53.550;10.048;2022-09-27T07:20:30;14.20;57.20
1135;DHT22;556;53.550;10.048;2022-09-27T07:22:58;14.20;57.10
1135;DHT22;556;53.550;10.048;2022-09-27T07:25:25;14.20;57.10
1135;DHT22;556;53.550;10.048;2022-09-27T07:27:53;14.40;57.40
1135;DHT22;556;53.550;10.048;2022-09-27T07:30:20;14.30;57.20
1135;DHT22;556;53.550;10.048;2022-09-27T07:32:49;14.20;57.00
1135;DHT22;556;53.550;10.048;2022-09-27T07:35:17;14.20;57.10
1135;DHT22;556;53.550;10.048;2022-09-27T07:37:45;14.10;57.20
1135;DHT22;556;53.550;10.048;2022-09-27T07:40:13;14.20;57.30
1135;DHT22;556;53.550;10.048;2022-09-27T07:42:40;14.20;57.30
1135;DHT22;556;53.550;10.048;2022-09-27T07:45:08;14.20;57.30
1135;DHT22;556;53.550;10.048;2022-09-27T07:48:15;14.20;57.30
1135;DHT22;556;53.550;10.048;2022-09-27T07:51:03;14.30;57.20
1135;DHT22;556;53.550;10.048;2022-09-27T07:53:52;14.40;57.10
1135;DHT22;556;53.550;10.048;2022-09-27T07:56:44;14.50;57.10
1135;DHT22;556;53.550;10.048;2022-09-27T07:59:13;14.60;57.00
1135;DHT22;556;53.550;10.048;2022-09-27T08:01:40;14.60;56.90
1135;DHT22;556;53.550;10.048;2022-09-27T08:04:07;14.70;56.90
1135;DHT22;556;53.550;10.048;2022-09-27T08:09:06;14.60;56.90
1135;DHT22;556;53.550;10.048;2022-09-27T08:11:35;14.60;56.90
1135;DHT22;556;53.550;10.048;2022-09-27T08:14:03;14.50;57.00
1135;DHT22;556;53.550;10.048;2022-09-27T08:16:32;14.50;57.00
1135;DHT22;556;53.550;10.048;2022-09-27T08:19:28;14.50;56.90
1135;DHT22;556;53.550;10.048;2022-09-27T08:22:05;14.30;57.00
1135;DHT22;556;53.550;10.048;2022-09-27T08:27:43;14.10;57.20
1135;DHT22;556;53.550;10.048;2022-09-27T08:30:32;14.00;57.20
1135;DHT22;556;53.550;10.048;2022-09-27T08:33:08;14.10;57.40
1135;DHT22;556;53.550;10.048;2022-09-27T08:35:36;14.10;57.30
1135;DHT22;556;53.550;10.048;2022-09-27T08:38:05;14.20;57.20
1135;DHT22;556;53.550;10.048;2022-09-27T08:40:50;14.20;57.20
1135;DHT22;556;53.550;10.048;2022-09-27T08:48:28;14.20;57.30
1135;DHT22;556;53.550;10.048;2022-09-27T08:53:29;14.20;57.20
1135;DHT22;556;53.550;10.048;2022-09-27T08:56:00;14.10;57.20
1135;DHT22;556;53.550;10.048;2022-09-27T08:58:34;14.10;57.30
1135;DHT22;556;53.550;10.048;2022-09-27T09:01:12;14.20;57.50
1135;DHT22;556;53.550;10.048;2022-09-27T09:03:50;14.20;57.30
1135;DHT22;556;53.550;10.048;2022-09-27T09:06:23;14.20;57.40
1135;DHT22;556;53.550;10.048;2022-09-27T09:09:01;14.20;57.30
1135;DHT22;556;53.550;10.048;2022-09-27T09:17:07;14.20;57.30
1135;DHT22;556;53.550;10.048;2022-09-27T09:20:03;14.20;57.40
1135;DHT22;556;53.550;10.048;2022-09-27T09:23:08;14.10;57.40
1135;DHT22;556;53.550;10.048;2022-09-27T09:25:49;14.00;57.40
1135;DHT22;556;53.550;10.048;2022-09-27T09:36:24;13.90;57.60
1135;DHT22;556;53.550;10.048;2022-09-27T09:38:56;13.90;57.60
1135;DHT22;556;53.550;10.048;2022-09-27T09:41:27;13.90;57.50
1135;DHT22;556;53.550;10.048;2022-09-27T09:44:01;13.90;57.60
1135;DHT22;556;53.550;10.048;2022-09-27T09:46:34;14.00;57.70
1135;DHT22;556;53.550;10.048;2022-09-27T09:49:11;13.90;57.50
1135;DHT22;556;53.550;10.048;2022-09-27T09:51:46;13.90;57.50
1135;DHT22;556;53.550;10.048;2022-09-27T09:54:21;13.90;57.60
1135;DHT22;556;53.550;10.048;2022-09-27T09:56:56;13.90;57.70
1135;DHT22;556;53.550;10.048;2022-09-27T09:59:28;13.90;57.60
1135;DHT22;556;53.550;10.048;2022-09-27T10:02:11;13.90;57.70
1135;DHT22;556;53.550;10.048;2022-09-27T10:04:40;13.90;57.70
1135;DHT22;556;53.550;10.048;2022-09-27T10:07:09;13.90;57.60
1135;DHT22;556;53.550;10.048;2022-09-27T10:09:37;13.80;57.80
1135;DHT22;556;53.550;10.048;2022-09-27T10:12:25;13.80;57.90
1135;DHT22;556;53.550;10.048;2022-09-27T10:14:56;13.80;57.80
1135;DHT22;556;53.550;10.048;2022-09-27T10:17:27;14.00;57.90
1135;DHT22;556;53.550;10.048;2022-09-27T10:20:01;14.10;57.70
1135;DHT22;556;53.550;10.048;2022-09-27T10:22:34;14.10;57.80
1135;DHT22;556;53.550;10.048;2022-09-27T10:25:11;14.20;57.90
1135;DHT22;556;53.550;10.048;2022-09-27T10:30:27;14.40;57.80
1135;DHT22;556;53.550;10.048;2022-09-27T10:32:58;14.50;57.70
1135;DHT22;556;53.550;10.048;2022-09-27T10:35:56;14.60;57.60
1135;DHT22;556;53.550;10.048;2022-09-27T10:38:36;14.60;57.50
1135;DHT22;556;53.550;10.048;2022-09-27T10:41:16;14.60;57.50
1135;DHT22;556;53.550;10.048;2022-09-27T10:43:48;14.70;57.60
1135;DHT22;556;53.550;10.048;2022-09-27T10:46:31;14.80;57.50
1135;DHT22;556;53.550;10.048;2022-09-27T10:49:32;14.90;57.60
1135;DHT22;556;53.550;10.048;2022-09-27T10:52:03;14.90;57.40
1135;DHT22;556;53.550;10.048;2022-09-27T10:54:34;14.90;57.30
1135;DHT22;556;53.550;10.048;2022-09-27T10:57:04;14.90;57.30
1135;DHT22;556;53.550;10.048;2022-09-27T10:59:34;15.00;57.50
1135;DHT22;556;53.550;10.048;2022-09-27T11:02:03;15.10;57.50
1135;DHT22;556;53.550;10.048;2022-09-27T11:04:37;15.10;57.40
1135;DHT22;556;53.550;10.048;2022-09-27T11:07:22;15.20;57.20
1135;DHT22;556;53.550;10.048;2022-09-27T11:10:06;15.20;57.20
1135;DHT22;556;53.550;10.048;2022-09-27T11:12:45;15.20;57.70
1135;DHT22;556;53.550;10.048;2022-09-27T11:15:16;15.30;57.20
1135;DHT22;556;53.550;10.048;2022-09-27T11:17:57;15.30;57.10
1135;DHT22;556;53.550;10.048;2022-09-27T11:20:31;15.20;57.10
1135;DHT22;556;53.550;10.048;2022-09-27T11:23:32;15.30;57.20
1135;DHT22;556;53.550;10.048;2022-09-27T11:26:21;15.30;57.10
1135;DHT22;556;53.550;10.048;2022-09-27T11:29:00;15.40;57.10
1135;DHT22;556;53.550;10.048;2022-09-27T11:32:13;15.30;57.10
1135;DHT22;556;53.550;10.048;2022-09-27T11:35:13;15.30;57.20
1135;DHT22;556;53.550;10.048;2022-09-27T11:37:51;15.40;57.10
1135;DHT22;556;53.550;10.048;2022-09-27T11:40:43;15.50;57.20
1135;DHT22;556;53.550;10.048;2022-09-27T11:43:24;15.60;57.10
1135;DHT22;556;53.550;10.048;2022-09-27T11:46:04;15.60;57.00
1135;DHT22;556;53.550;10.048;2022-09-27T11:48:53;15.80;56.90
1135;DHT22;556;53.550;10.048;2022-09-27T11:51:32;15.90;56.80
1135;DHT22;556;53.550;10.048;2022-09-27T11:54:15;16.00;56.70
1135;DHT22;556;53.550;10.048;2022-09-27T11:56:51;16.10;56.80
1135;DHT22;556;53.550;10.048;2022-09-27T11:59:40;16.30;56.80
1135;DHT22;556;53.550;10.048;2022-09-27T12:02:29;16.40;56.60
1135;DHT22;556;53.550;10.048;2022-09-27T12:05:08;16.50;56.40
1135;DHT22;556;53.550;10.048;2022-09-27T12:07:51;16.50;56.40
1135;DHT22;556;53.550;10.048;2022-09-27T12:10:22;16.60;56.60
1135;DHT22;556;53.550;10.048;2022-09-27T12:12:52;16.80;56.40
1135;DHT22;556;53.550;10.048;2022-09-27T12:15:23;16.90;56.20
1135;DHT22;556;53.550;10.048;2022-09-27T12:18:08;16.90;56.10
1135;DHT22;556;53.550;10.048;2022-09-27T12:20:38;17.00;56.10
1135;DHT22;556;53.550;10.048;2022-09-27T12:23:12;17.00;56.10
1135;DHT22;556;53.550;10.048;2022-09-27T12:26:05;17.10;56.30
1135;DHT22;556;53.550;10.048;2022-09-27T12:28:40;17.30;56.10
1135;DHT22;556;53.550;10.048;2022-09-27T12:31:17;17.20;56.00
1135;DHT22;556;53.550;10.048;2022-09-27T12:33:50;17.40;56.50
1135;DHT22;556;53.550;10.048;2022-09-27T12:36:23;17.40;55.70
1135;DHT22;556;53.550;10.048;2022-09-27T12:39:01;17.50;55.40
1135;DHT22;556;53.550;10.048;2022-09-27T12:41:35;17.50;55.50
1135;DHT22;556;53.550;10.048;2022-09-27T12:44:18;17.50;55.70
1135;DHT22;556;53.550;10.048;2022-09-27T12:46:58;17.50;55.50
1135;DHT22;556;53.550;10.048;2022-09-27T12:49:38;17.50;55.60
1135;DHT22;556;53.550;10.048;2022-09-27T12:52:13;17.50;55.50
1135;DHT22;556;53.550;10.048;2022-09-27T12:55:06;17.50;55.30
1135;DHT22;556;53.550;10.048;2022-09-27T12:57:43;17.30;55.10
1135;DHT22;556;53.550;10.048;2022-09-27T13:00:18;17.10;55.00
1135;DHT22;556;53.550;10.048;2022-09-27T13:03:11;16.70;54.90
1135;DHT22;556;53.550;10.048;2022-09-27T13:09:03;16.20;55.30
1135;DHT22;556;53.550;10.048;2022-09-27T13:11:40;16.20;55.80
1135;DHT22;556;53.550;10.048;2022-09-27T13:14:16;16.10;55.40
1135;DHT22;556;53.550;10.048;2022-09-27T13:16:45;16.00;55.40
1135;DHT22;556;53.550;10.048;2022-09-27T13:19:41;16.20;55.40
1135;DHT22;556;53.550;10.048;2022-09-27T13:22:35;16.20;55.90
1135;DHT22;556;53.550;10.048;2022-09-27T13:25:48;16.30;55.10
1135;DHT22;556;53.550;10.048;2022-09-27T13:28:57;16.40;55.00
1135;DHT22;556;53.550;10.048;2022-09-27T13:35:18;16.80;54.70
1135;DHT22;556;53.550;10.048;2022-09-27T13:37:52;16.70;54.60
1135;DHT22;556;53.550;10.048;2022-09-27T13:40:40;16.80;54.70
1135;DHT22;556;53.550;10.048;2022-09-27T13:43:39;16.90;54.80
1135;DHT22;556;53.550;10.048;2022-09-27T13:46:29;16.90;54.60
1135;DHT22;556;53.550;10.048;2022-09-27T13:49:00;16.90;54.60
1135;DHT22;556;53.550;10.048;2022-09-27T13:51:53;16.90;54.40
1135;DHT22;556;53.550;10.048;2022-09-27T13:54:39;17.00;54.90
1135;DHT22;556;53.550;10.048;2022-09-27T13:57:45;17.10;54.30
1135;DHT22;556;53.550;10.048;2022-09-27T14:00:38;17.20;54.20
1135;DHT22;556;53.550;10.048;2022-09-27T14:03:14;17.30;54.20
1135;DHT22;556;53.550;10.048;2022-09-27T14:05:47;17.30;54.20
1135;DHT22;556;53.550;10.048;2022-09-27T14:08:20;17.20;54.60
1135;DHT22;556;53.550;10.048;2022-09-27T14:10:51;17.30;54.10
1135;DHT22;556;53.550;10.048;2022-09-27T14:13:19;17.20;53.90
1135;DHT22;556;53.550;10.048;2022-09-27T14:15:59;17.20;53.90
1135;DHT22;556;53.550;10.048;2022-09-27T14:18:29;17.20;54.40
1135;DHT22;556;53.550;10.048;2022-09-27T14:21:10;17.00;54.00
1135;DHT22;556;53.550;10.048;2022-09-27T14:23:52;17.00;54.40
1135;DHT22;556;53.550;10.048;2022-09-27T14:26:22;16.90;54.10
1135;DHT22;556;53.550;10.048;2022-09-27T14:28:50;16.90;54.10
1135;DHT22;556;53.550;10.048;2022-09-27T14:31:28;16.90;54.00
1135;DHT22;556;53.550;10.048;2022-09-27T14:34:14;16.80;53.80
1135;DHT22;556;53.550;10.048;2022-09-27T14:36:47;16.90;54.00
1135;DHT22;556;53.550;10.048;2022-09-27T14:39:41;16.90;54.00
1135;DHT22;556;53.550;10.048;2022-09-27T14:45:02;17.00;53.80
1135;DHT22;556;53.550;10.048;2022-09-27T14:47:32;17.00;53.70
1135;DHT22;556;53.550;10.048;2022-09-27T14:50:01;17.00;53.60
1135;DHT22;556;53.550;10.048;2022-09-27T14:52:31;17.00;53.60
1135;DHT22;556;53.550;10.048;2022-09-27T14:55:05;16.90;53.60
1135;DHT22;556;53.550;10.048;2022-09-27T14:57:33;16.80;53.50
1135;DHT22;556;53.550;10.048;2022-09-27T15:00:15;16.70;53.50
1135;DHT22;556;53.550;10.048;2022-09-27T15:02:44;16.60;53.50
1135;DHT22;556;53.550;10.048;2022-09-27T15:05:14;16.50;53.40
1135;DHT22;556;53.550;10.048;2022-09-27T15:07:42;16.50;53.50
1135;DHT22;556;53.550;10.048;2022-09-27T15:10:14;16.40;53.50
1135;DHT22;556;53.550;10.048;2022-09-27T15:12:44;16.40;53.50
1135;DHT22;556;53.550;10.048;2022-09-27T15:15:16;16.40;53.50
1135;DHT22;556;53.550;10.048;2022-09-27T15:17:45;16.50;53.50
1135;DHT22;556;53.550;10.048;2022-09-27T15:20:22;16.50;53.30
1135;DHT22;556;53.550;10.048;2022-09-27T15:22:52;16.50;53.30
1135;DHT22;556;53.550;10.048;2022-09-27T15:25:25;16.40;53.80
1135;DHT22;556;53.550;10.048;2022-09-27T15:27:58;16.40;53.40
1135;DHT22;556;53.550;10.048;2022-09-27T15:30:27;16.30;53.40
1135;DHT22;556;53.550;10.048;2022-09-27T15:32:55;16.30;53.80
1135;DHT22;556;53.550;10.048;2022-09-27T15:35:25;16.30;53.20
1135;DHT22;556;53.550;10.048;2022-09-27T15:38:10;16.30;53.20
1135;DHT22;556;53.550;10.048;2022-09-27T15:41:07;16.20;53.20
1135;DHT22;556;53.550;10.048;2022-09-27T15:43:38;16.20;53.20
1135;DHT22;556;53.550;10.048;2022-09-27T15:46:32;16.20;53.70
1135;DHT22;556;53.550;10.048;2022-09-27T15:49:25;16.10;53.10
1135;DHT22;556;53.550;10.048;2022-09-27T15:51:55;16.00;53.10
1135;DHT22;556;53.550;10.048;2022-09-27T15:54:24;15.90;53.10
1135;DHT22;556;53.550;10.048;2022-09-27T15:56:53;15.90;53.10
1135;DHT22;556;53.550;10.048;2022-09-27T15:59:22;15.90;53.00
1135;DHT22;556;53.550;10.048;2022-09-27T16:01:54;15.70;53.00
1135;DHT22;556;53.550;10.048;2022-09-27T16:04:22;15.70;53.00
1135;DHT22;556;53.550;10.048;2022-09-27T16:06:49;15.70;52.90
1135;DHT22;556;53.550;10.048;2022-09-27T16:09:17;15.50;52.90
1135;DHT22;556;53.550;10.048;2022-09-27T16:11:45;15.50;53.00
1135;DHT22;556;53.550;10.048;2022-09-27T16:14:14;15.40;53.00
1135;DHT22;556;53.550;10.048;2022-09-27T16:16:44;15.40;53.10
1135;DHT22;556;53.550;10.048;2022-09-27T16:19:12;15.40;53.10
1135;DHT22;556;53.550;10.048;2022-09-27T16:21:40;15.40;53.10
1135;DHT22;556;53.550;10.048;2022-09-27T16:24:08;15.40;53.20
1135;DHT22;556;53.550;10.048;2022-09-27T16:26:36;15.40;53.20
1135;DHT22;556;53.550;10.048;2022-09-27T16:29:04;15.40;53.20
1135;DHT22;556;53.550;10.048;2022-09-27T16:31:36;15.40;53.10
1135;DHT22;556;53.550;10.048;2022-09-27T16:34:03;15.30;53.10
1135;DHT22;556;53.550;10.048;2022-09-27T16:36:30;15.30;53.10
1135;DHT22;556;53.550;10.048;2022-09-27T16:38:57;15.30;53.10
1135;DHT22;556;53.550;10.048;2022-09-27T16:41:24;15.20;53.10
1135;DHT22;556;53.550;10.048;2022-09-27T16:43:51;15.20;53.10
1135;DHT22;556;53.550;10.048;2022-09-27T16:46:19;15.10;53.10
1135;DHT22;556;53.550;10.048;2022-09-27T16:48:47;15.10;53.10
1135;DHT22;556;53.550;10.048;2022-09-27T16:51:17;15.10;53.60
1135;DHT22;556;53.550;10.048;2022-09-27T16:54:03;15.00;53.10
1135;DHT22;556;53.550;10.048;2022-09-27T16:56:31;14.90;53.20
1135;DHT22;556;53.550;10.048;2022-09-27T16:58:59;14.90;53.10
1135;DHT22;556;53.550;10.048;2022-09-27T17:01:29;15.00;53.20
1135;DHT22;556;53.550;10.048;2022-09-27T17:03:57;15.00;53.10
1135;DHT22;556;53.550;10.048;2022-09-27T17:06:25;15.00;53.10
1135;DHT22;556;53.550;10.048;2022-09-27T17:08:54;15.00;53.00
1135;DHT22;556;53.550;10.048;2022-09-27T17:11:21;15.00;53.10
1135;DHT22;556;53.550;10.048;2022-09-27T17:16:20;14.80;53.10
1135;DHT22;556;53.550;10.048;2022-09-27T17:18:47;14.80;53.10
1135;DHT22;556;53.550;10.048;2022-09-27T17:21:16;14.80;53.10
1135;DHT22;556;53.550;10.048;2022-09-27T17:23:43;14.80;53.10
1135;DHT22;556;53.550;10.048;2022-09-27T17:26:15;14.70;53.10
1135;DHT22;556;53.550;10.048;2022-09-27T17:28:42;14.70;53.10
1135;DHT22;556;53.550;10.048;2022-09-27T17:31:11;14.70;53.20
1135;DHT22;556;53.550;10.048;2022-09-27T17:33:42;14.70;53.20
1135;DHT22;556;53.550;10.048;2022-09-27T17:36:11;14.80;53.70
1135;DHT22;556;53.550;10.048;2022-09-27T17:38:40;14.80;53.10
1135;DHT22;556;53.550;10.048;2022-09-27T17:41:09;14.70;53.60
1135;DHT22;556;53.550;10.048;2022-09-27T17:43:37;14.70;53.10
1135;DHT22;556;53.550;10.048;2022-09-27T17:46:08;14.80;53.20
1135;DHT22;556;53.550;10.048;2022-09-27T17:48:36;14.80;53.10
1135;DHT22;556;53.550;10.048;2022-09-27T17:51:21;14.80;53.60
1135;DHT22;556;53.550;10.048;2022-09-27T17:53:51;14.80;53.10
1135;DHT22;556;53.550;10.048;2022-09-27T17:56:18;14.80;53.00
1135;DHT22;556;53.550;10.048;2022-09-27T17:58:46;14.80;53.00
1135;DHT22;556;53.550;10.048;2022-09-27T18:01:13;14.70;53.00
1135;DHT22;556;53.550;10.048;2022-09-27T18:03:41;14.70;53.00
1135;DHT22;556;53.550;10.048;2022-09-27T18:06:09;14.70;53.00
1135;DHT22;556;53.550;10.048;2022-09-27T18:08:37;14.60;53.50
1135;DHT22;556;53.550;10.048;2022-09-27T18:11:08;14.60;53.60
1135;DHT22;556;53.550;10.048;2022-09-27T18:13:36;14.60;53.60
1135;DHT22;556;53.550;10.048;2022-09-27T18:16:07;14.60;53.10
1135;DHT22;556;53.550;10.048;2022-09-27T18:18:36;14.60;53.10
1135;DHT22;556;53.550;10.048;2022-09-27T18:21:05;14.60;53.20
1135;DHT22;556;53.550;10.048;2022-09-27T18:23:34;14.60;53.20
1135;DHT22;556;53.550;10.048;2022-09-27T18:26:01;14.50;53.10
1135;DHT22;556;53.550;10.048;2022-09-27T18:28:31;14.50;53.20